Time;durP1;ratioP1;P1;durP2;ratioP2;P2;SDS_P1;SDS_P2;PMS_P1;PMS_P2;Temp;Humidity;BMP_temperature;BMP_pressure;BME280_temperature;BME280_humidity;BME280_pressure;Samples;Min_cycle;Max_cycle;Signal;HPM_P1;HPM_P2
2023/01/21 00:01:43;;;;;;;;;;;-1.70;99.90;;;;;;5097488;28;19908;-62
2023/01/21 00:04:08;;;;;;;;;;;-1.70;99.90;;;;;;5097155;28;20421;-62
2023/01/21 00:06:35;;;;;;;;;;;-1.70;99.90;;;;;;5097117;28;20347;-62
2023/01/21 00:09:00;;;;;;;;;;;-1.70;99.90;;;;;;5097369;28;20427;-62
2023/01/21 00:11:26;;;;;;;;;;;-1.70;99.90;;;;;;5078957;28;19912;-62
2023/01/21 00:13:51;;;;;;;;;;;-1.80;99.90;;;;;;5096979;28;20389;-62
2023/01/21 00:16:16;;;;;;;;;;;-1.80;99.90;;;;;;5096726;28;19924;-62
2023/01/21 00:18:42;;;;;;;;;;;-1.80;99.90;;;;;;5096898;28;20003;-62
2023/01/21 00:21:08;;;;;;;;;;;-1.70;99.90;;;;;;5097056;28;19916;-62
2023/01/21 00:23:33;;;;;;;;;;;-1.70;99.90;;;;;;5078762;28;19966;-62
2023/01/21 00:26:00;;;;;;;;;;;-1.60;99.90;;;;;;5096980;28;19908;-62
2023/01/21 00:28:27;;;;;;;;;;;-1.60;99.90;;;;;;5096651;28;19916;-62
2023/01/21 00:30:55;;;;;;;;;;;-1.60;99.90;;;;;;5096926;28;19915;-63
2023/01/21 00:33:21;;;;;;;;;;;-1.70;99.90;;;;;;5096900;28;19912;-62
2023/01/21 00:35:55;;;;;;;;;;;-1.80;99.90;;;;;;5096773;28;19919;-62
2023/01/21 00:38:20;;;;;;;;;;;-1.70;99.90;;;;;;5096550;28;19914;-62
2023/01/21 00:40:45;;;;;;;;;;;-1.70;99.90;;;;;;5096460;28;19908;-62
2023/01/21 00:43:11;;;;;;;;;;;-1.70;99.90;;;;;;5078612;28;19912;-62
2023/01/21 00:45:36;;;;;;;;;;;-1.70;99.90;;;;;;5096404;28;19955;-61
2023/01/21 00:48:02;;;;;;;;;;;-1.70;99.90;;;;;;5096193;28;20400;-62
2023/01/21 00:50:27;;;;;;;;;;;-1.70;99.90;;;;;;5096290;28;19980;-62
2023/01/21 00:52:53;;;;;;;;;;;-1.80;99.90;;;;;;5096250;28;19908;-63
2023/01/21 00:55:18;;;;;;;;;;;-1.80;99.90;;;;;;5096437;28;19912;-62
2023/01/21 00:57:44;;;;;;;;;;;-1.80;99.90;;;;;;5096128;28;20370;-62
2023/01/21 01:00:11;;;;;;;;;;;-1.70;99.90;;;;;;5096099;28;19908;-62
2023/01/21 01:02:37;;;;;;;;;;;-1.70;99.90;;;;;;5096348;28;19934;-62
2023/01/21 01:05:04;;;;;;;;;;;-1.70;99.90;;;;;;5077954;28;19915;-62
2023/01/21 01:07:30;;;;;;;;;;;-1.70;99.90;;;;;;5096253;28;20383;-62
2023/01/21 01:09:55;;;;;;;;;;;-1.70;99.90;;;;;;5096170;28;19944;-62
2023/01/21 01:12:21;;;;;;;;;;;-1.70;99.90;;;;;;5096141;28;19912;-62
2023/01/21 01:14:46;;;;;;;;;;;-1.70;99.90;;;;;;5095554;28;20398;-61
2023/01/21 01:17:11;;;;;;;;;;;-1.60;99.90;;;;;;5096049;28;19965;-62
2023/01/21 01:19:37;;;;;;;;;;;-1.60;99.90;;;;;;5096006;28;19914;-61
2023/01/21 01:22:02;;;;;;;;;;;-1.60;99.90;;;;;;5095907;28;19908;-62
2023/01/21 01:24:28;;;;;;;;;;;-1.60;99.90;;;;;;5095618;28;20389;-62
2023/01/21 01:26:53;;;;;;;;;;;-1.50;99.90;;;;;;5095629;28;19909;-62
2023/01/21 01:29:19;;;;;;;;;;;-1.50;99.90;;;;;;5095539;28;20309;-62
2023/01/21 01:31:44;;;;;;;;;;;-1.60;99.90;;;;;;5095758;28;19968;-62
2023/01/21 01:34:10;;;;;;;;;;;-1.60;99.90;;;;;;5095697;28;19908;-62
2023/01/21 01:36:35;;;;;;;;;;;-1.60;99.90;;;;;;5095601;28;20013;-62
2023/01/21 01:39:01;;;;;;;;;;;-1.60;99.90;;;;;;5095333;28;19913;-62
2023/01/21 01:41:28;;;;;;;;;;;-1.60;99.90;;;;;;5095598;28;19908;-62
2023/01/21 01:43:56;;;;;;;;;;;-1.70;99.90;;;;;;5095512;28;20030;-62
2023/01/21 01:46:23;;;;;;;;;;;-1.80;99.90;;;;;;5095479;28;19948;-62
2023/01/21 01:48:51;;;;;;;;;;;-1.80;99.90;;;;;;5095469;28;20336;-62
2023/01/21 01:51:18;;;;;;;;;;;-1.80;99.90;;;;;;5095409;28;20376;-62
2023/01/21 01:53:45;;;;;;;;;;;-1.80;99.90;;;;;;5095066;28;19909;-62
2023/01/21 01:56:10;;;;;;;;;;;-1.80;99.90;;;;;;5094963;28;20020;-62
2023/01/21 01:58:36;;;;;;;;;;;-1.70;99.90;;;;;;5094494;28;19940;-62
2023/01/21 02:01:02;;;;;;;;;;;-1.70;99.90;;;;;;5094794;28;20000;-62
2023/01/21 02:03:49;;;;;;;;;;;-1.80;99.90;;;;;;5095182;28;19908;-62
2023/01/21 02:06:16;;;;;;;;;;;-1.70;99.90;;;;;;5094826;28;19915;-62
2023/01/21 02:08:43;;;;;;;;;;;-1.70;99.90;;;;;;5094775;28;19912;-61
2023/01/21 02:11:10;;;;;;;;;;;-1.70;99.90;;;;;;5094731;28;19908;-62
2023/01/21 02:13:36;;;;;;;;;;;-1.70;99.90;;;;;;5094900;28;19908;-62
2023/01/21 02:16:12;;;;;;;;;;;-1.70;99.90;;;;;;5094375;28;19931;-62
2023/01/21 02:18:46;;;;;;;;;;;-1.80;99.90;;;;;;5094615;28;19915;-62
2023/01/21 02:21:31;;;;;;;;;;;-2.00;99.90;;;;;;5094853;28;20369;-62
2023/01/21 02:24:08;;;;;;;;;;;-2.00;99.90;;;;;;5094426;28;19908;-62
2023/01/21 02:26:54;;;;;;;;;;;-2.10;99.90;;;;;;5094705;28;19908;-62
2023/01/21 02:29:31;;;;;;;;;;;-2.10;99.90;;;;;;5094298;28;19915;-62
2023/01/21 02:32:14;;;;;;;;;;;-2.30;99.90;;;;;;5094643;28;19949;-62
2023/01/21 02:34:51;;;;;;;;;;;-2.30;99.90;;;;;;5094267;28;19908;-62
2023/01/21 02:37:36;;;;;;;;;;;-2.30;99.90;;;;;;5094540;28;19969;-62
2023/01/21 02:40:09;;;;;;;;;;;-2.40;99.90;;;;;;5094144;28;19908;-62
2023/01/21 02:42:55;;;;;;;;;;;-2.50;99.90;;;;;;5094157;28;19908;-61
2023/01/21 02:45:26;;;;;;;;;;;-2.50;99.90;;;;;;5093986;28;20019;-61
2023/01/21 02:47:54;;;;;;;;;;;-2.40;99.90;;;;;;5094127;28;19908;-63
2023/01/21 02:50:23;;;;;;;;;;;-2.20;99.90;;;;;;5094338;28;19935;-62
2023/01/21 02:52:56;;;;;;;;;;;-2.20;99.90;;;;;;5094340;28;19957;-62
2023/01/21 02:55:25;;;;;;;;;;;-2.20;99.90;;;;;;5093930;28;20262;-61
2023/01/21 02:57:53;;;;;;;;;;;-2.10;99.90;;;;;;5075903;28;20392;-63
2023/01/21 03:00:22;;;;;;;;;;;-2.10;99.90;;;;;;5094167;28;20131;-62
2023/01/21 03:02:56;;;;;;;;;;;-2.10;99.90;;;;;;5093882;28;19961;-62
2023/01/21 03:05:41;;;;;;;;;;;-2.00;99.90;;;;;;5094134;28;19916;-62
2023/01/21 03:08:11;;;;;;;;;;;-2.10;99.90;;;;;;5093705;28;20284;-62
2023/01/21 03:10:41;;;;;;;;;;;-2.10;99.90;;;;;;5093926;28;19908;-62
2023/01/21 03:13:12;;;;;;;;;;;-2.20;99.90;;;;;;5093773;28;20024;-61
2023/01/21 03:18:30;;;;;;;;;;;-2.30;99.90;;;;;;5093562;28;19912;-62
2023/01/21 03:20:57;;;;;;;;;;;-2.30;99.90;;;;;;5093717;28;20015;-62
2023/01/21 03:23:27;;;;;;;;;;;-2.30;99.90;;;;;;5093831;28;19962;-62
2023/01/21 03:25:53;;;;;;;;;;;-2.30;99.90;;;;;;5093943;28;20345;-62
2023/01/21 03:28:21;;;;;;;;;;;-2.50;99.90;;;;;;5093930;28;19912;-62
2023/01/21 03:30:48;;;;;;;;;;;-2.50;99.90;;;;;;5093903;28;19909;-62
2023/01/21 03:33:15;;;;;;;;;;;-2.40;99.90;;;;;;5093605;28;20331;-61
2023/01/21 03:35:42;;;;;;;;;;;-2.30;99.90;;;;;;5093748;28;19956;-61
2023/01/21 03:38:12;;;;;;;;;;;-2.40;99.90;;;;;;5093553;28;19908;-61
2023/01/21 03:40:40;;;;;;;;;;;-2.40;99.90;;;;;;5093531;28;19916;-62
2023/01/21 03:43:06;;;;;;;;;;;-2.60;99.90;;;;;;5093516;28;19908;-61
2023/01/21 03:45:34;;;;;;;;;;;-2.70;99.90;;;;;;5093466;28;19908;-61
2023/01/21 03:48:04;;;;;;;;;;;-2.60;99.90;;;;;;5093483;28;19914;-61
2023/01/21 03:50:35;;;;;;;;;;;-2.80;99.90;;;;;;5093697;28;19915;-61
2023/01/21 03:53:00;;;;;;;;;;;-2.90;99.90;;;;;;5093669;28;19912;-61
2023/01/21 03:55:26;;;;;;;;;;;-3.00;99.90;;;;;;5093305;28;19962;-61
2023/01/21 03:57:51;;;;;;;;;;;-3.10;99.90;;;;;;5093371;28;19908;-61
2023/01/21 04:00:17;;;;;;;;;;;-3.20;99.90;;;;;;5093629;28;20345;-61
2023/01/21 04:02:42;;;;;;;;;;;-3.30;99.90;;;;;;5093326;28;20003;-61
2023/01/21 04:05:08;;;;;;;;;;;-3.40;99.90;;;;;;5093255;28;19908;-61
2023/01/21 04:07:33;;;;;;;;;;;-3.50;99.90;;;;;;5093546;28;19909;-61
2023/01/21 04:09:59;;;;;;;;;;;-3.60;99.90;;;;;;5093339;28;19999;-62
2023/01/21 04:12:24;;;;;;;;;;;-3.60;99.90;;;;;;5093229;28;20373;-61
2023/01/21 04:14:50;;;;;;;;;;;-3.70;99.90;;;;;;5093084;28;20351;-61
2023/01/21 04:17:15;;;;;;;;;;;-3.70;99.90;;;;;;5075103;28;20354;-61
2023/01/21 04:19:41;;;;;;;;;;;-3.70;99.90;;;;;;5093441;28;19908;-64
2023/01/21 04:22:06;;;;;;;;;;;-3.80;99.90;;;;;;5093352;28;19912;-61
2023/01/21 04:24:31;;;;;;;;;;;-3.80;99.90;;;;;;5096887;28;20289;-61
2023/01/21 04:26:57;;;;;;;;;;;-3.80;99.90;;;;;;5078764;28;20276;-62
2023/01/21 04:29:22;;;;;;;;;;;-3.90;99.90;;;;;;5096744;28;19912;-62
2023/01/21 04:31:48;;;;;;;;;;;-3.90;99.90;;;;;;5096660;28;19912;-64
2023/01/21 04:34:15;;;;;;;;;;;-3.90;99.90;;;;;;5096644;28;19998;-62
2023/01/21 04:36:40;;;;;;;;;;;-4.00;99.90;;;;;;5096502;28;19952;-62
2023/01/21 04:39:06;;;;;;;;;;;-4.00;99.90;;;;;;5078402;28;20411;-62
2023/01/21 04:41:31;;;;;;;;;;;-4.00;99.90;;;;;;5096481;28;19908;-61
2023/01/21 04:43:57;;;;;;;;;;;-4.10;99.90;;;;;;5096442;28;19958;-62
2023/01/21 04:46:22;;;;;;;;;;;-4.00;99.90;;;;;;5096672;28;19919;-62
2023/01/21 04:48:48;;;;;;;;;;;-4.00;99.90;;;;;;5096379;28;19915;-62
2023/01/21 04:51:13;;;;;;;;;;;-4.10;99.90;;;;;;5096553;28;19991;-61
2023/01/21 04:53:39;;;;;;;;;;;-4.10;99.90;;;;;;5096271;28;20408;-62
2023/01/21 04:56:04;;;;;;;;;;;-4.10;99.90;;;;;;5096124;28;20426;-61
2023/01/21 04:58:30;;;;;;;;;;;-4.20;99.90;;;;;;5096174;28;19908;-62
2023/01/21 05:00:55;;;;;;;;;;;-4.20;99.90;;;;;;5096384;28;19908;-61
2023/01/21 05:03:21;;;;;;;;;;;-4.20;99.90;;;;;;5096332;28;20400;-62
2023/01/21 05:05:46;;;;;;;;;;;-4.30;99.90;;;;;;5096004;28;20001;-61
2023/01/21 05:08:12;;;;;;;;;;;-4.30;99.90;;;;;;5096041;28;19908;-61
2023/01/21 05:10:37;;;;;;;;;;;-4.40;99.90;;;;;;5078116;28;19914;-62
2023/01/21 05:13:03;;;;;;;;;;;-4.40;99.90;;;;;;5095869;28;19912;-62
2023/01/21 05:15:30;;;;;;;;;;;-4.40;99.90;;;;;;5095587;28;19966;-62
2023/01/21 05:17:55;;;;;;;;;;;-4.40;99.90;;;;;;5095860;28;19908;-62
2023/01/21 05:20:20;;;;;;;;;;;-4.40;99.90;;;;;;5096063;28;20270;-62
2023/01/21 05:22:46;;;;;;;;;;;-4.40;99.90;;;;;;5095982;28;19919;-61
2023/01/21 05:25:12;;;;;;;;;;;-4.40;99.90;;;;;;5095665;28;20015;-61
2023/01/21 05:27:38;;;;;;;;;;;-4.40;99.90;;;;;;5095910;28;19935;-62
2023/01/21 05:30:04;;;;;;;;;;;-4.40;99.90;;;;;;5095569;28;20280;-62
2023/01/21 05:32:29;;;;;;;;;;;-4.50;99.90;;;;;;5095530;28;20365;-62
2023/01/21 05:34:55;;;;;;;;;;;-4.50;99.90;;;;;;5095654;28;19915;-61
2023/01/21 05:37:20;;;;;;;;;;;-4.50;99.90;;;;;;5095665;28;19954;-62
2023/01/21 05:39:46;;;;;;;;;;;-4.20;99.90;;;;;;5095373;28;20305;-62
2023/01/21 05:42:11;;;;;;;;;;;-3.60;99.90;;;;;;5095320;28;19908;-61
2023/01/21 05:44:36;;;;;;;;;;;-3.00;99.90;;;;;;5077121;28;19912;-65
2023/01/21 05:47:02;;;;;;;;;;;-2.80;99.90;;;;;;5095487;28;19912;-61
2023/01/21 05:49:27;;;;;;;;;;;-2.80;99.90;;;;;;5095440;28;20369;-62
2023/01/21 05:51:53;;;;;;;;;;;-2.70;99.90;;;;;;5095389;28;19915;-61
2023/01/21 05:54:18;;;;;;;;;;;-2.60;99.90;;;;;;5095337;28;19908;-62
2023/01/21 05:56:44;;;;;;;;;;;-2.50;99.90;;;;;;5095240;28;19912;-62
2023/01/21 05:59:09;;;;;;;;;;;-2.40;99.90;;;;;;5095035;28;20361;-62
2023/01/21 06:01:35;;;;;;;;;;;-2.20;99.90;;;;;;5094944;28;20032;-62
2023/01/21 06:04:00;;;;;;;;;;;-2.10;99.90;;;;;;5094967;28;20392;-62
2023/01/21 06:06:25;;;;;;;;;;;-2.10;99.90;;;;;;5094867;28;19908;-62
2023/01/21 06:08:51;;;;;;;;;;;-2.10;99.90;;;;;;5095083;28;19909;-61
2023/01/21 06:11:16;;;;;;;;;;;-1.90;99.90;;;;;;5095055;28;20094;-61
2023/01/21 06:13:42;;;;;;;;;;;-1.80;99.90;;;;;;5094995;28;19908;-62
2023/01/21 06:16:07;;;;;;;;;;;-1.70;99.90;;;;;;5094534;28;19920;-62
2023/01/21 06:18:33;;;;;;;;;;;-1.70;99.90;;;;;;5094663;28;19912;-62
2023/01/21 06:20:59;;;;;;;;;;;-1.60;99.90;;;;;;5094603;28;19909;-62
2023/01/21 06:23:24;;;;;;;;;;;-1.60;99.90;;;;;;5094565;28;19999;-62
2023/01/21 06:25:50;;;;;;;;;;;-1.50;99.90;;;;;;5094799;28;20010;-62
2023/01/21 06:28:15;;;;;;;;;;;-1.40;99.90;;;;;;5094483;28;19908;-62
2023/01/21 06:30:41;;;;;;;;;;;-1.30;99.90;;;;;;5094426;28;20305;-62
2023/01/21 06:33:06;;;;;;;;;;;-1.30;99.90;;;;;;5094338;28;19914;-62
2023/01/21 06:35:32;;;;;;;;;;;-1.30;99.90;;;;;;5094222;28;19959;-62
2023/01/21 06:37:57;;;;;;;;;;;-1.30;99.90;;;;;;5094558;28;19908;-62
2023/01/21 06:40:23;;;;;;;;;;;-1.30;99.90;;;;;;5094501;28;19962;-62
2023/01/21 06:42:48;;;;;;;;;;;-1.20;99.90;;;;;;5094491;28;19908;-62
2023/01/21 06:45:14;;;;;;;;;;;-1.20;99.90;;;;;;5093780;28;19909;-62
2023/01/21 06:47:40;;;;;;;;;;;-1.20;99.90;;;;;;5094135;28;19969;-62
2023/01/21 06:50:06;;;;;;;;;;;-1.10;99.90;;;;;;5075922;28;19947;-62
2023/01/21 06:52:32;;;;;;;;;;;-1.00;99.90;;;;;;5094034;28;19947;-62
2023/01/21 06:54:57;;;;;;;;;;;-1.00;99.90;;;;;;5093987;28;19954;-62
2023/01/21 06:57:23;;;;;;;;;;;-1.00;99.90;;;;;;5094009;28;19912;-62
2023/01/21 06:59:49;;;;;;;;;;;-1.00;99.90;;;;;;5094229;28;19951;-62
2023/01/21 07:02:14;;;;;;;;;;;-0.90;99.90;;;;;;5075824;28;19908;-62
2023/01/21 07:04:40;;;;;;;;;;;-0.90;99.90;;;;;;5094176;28;19915;-62
2023/01/21 07:07:05;;;;;;;;;;;-0.80;99.90;;;;;;5094125;28;19936;-62
2023/01/21 07:09:31;;;;;;;;;;;-0.70;99.90;;;;;;5093896;28;19939;-62
2023/01/21 07:11:57;;;;;;;;;;;-0.70;99.90;;;;;;5094102;28;19915;-62
2023/01/21 07:14:22;;;;;;;;;;;-0.60;99.90;;;;;;5093871;28;19908;-62
2023/01/21 07:16:48;;;;;;;;;;;-0.60;99.90;;;;;;5093701;28;19934;-64
2023/01/21 07:19:13;;;;;;;;;;;-0.60;99.90;;;;;;5093763;28;19908;-62
2023/01/21 07:21:40;;;;;;;;;;;-0.60;99.90;;;;;;5094009;28;20069;-62
2023/01/21 07:24:06;;;;;;;;;;;-0.60;99.90;;;;;;5093935;28;19910;-62
2023/01/21 07:26:40;;;;;;;;;;;-0.50;99.90;;;;;;5093696;28;19931;-62
2023/01/21 07:29:05;;;;;;;;;;;-0.50;99.90;;;;;;5093715;28;20396;-62
2023/01/21 07:31:31;;;;;;;;;;;-0.50;99.90;;;;;;5093668;28;19908;-62
2023/01/21 07:33:56;;;;;;;;;;;-0.50;99.90;;;;;;5093670;28;19908;-62
2023/01/21 07:36:22;;;;;;;;;;;-0.40;99.90;;;;;;5093518;28;19916;-62
2023/01/21 07:38:47;;;;;;;;;;;-0.50;99.90;;;;;;5093798;28;19908;-62
2023/01/21 07:41:13;;;;;;;;;;;-0.50;99.90;;;;;;5093528;28;19920;-62
2023/01/21 07:43:38;;;;;;;;;;;-0.40;99.90;;;;;;5093511;28;19961;-62
2023/01/21 07:46:04;;;;;;;;;;;-0.40;99.90;;;;;;5093739;28;19908;-62
2023/01/21 07:48:29;;;;;;;;;;;-0.40;99.90;;;;;;5093479;28;19912;-62
2023/01/21 07:50:55;;;;;;;;;;;-0.40;99.90;;;;;;5093579;28;20434;-62
2023/01/21 07:53:21;;;;;;;;;;;-0.30;99.90;;;;;;5093450;28;19908;-62
2023/01/21 07:55:46;;;;;;;;;;;-0.40;99.90;;;;;;5093606;28;20250;-62
2023/01/21 07:58:12;;;;;;;;;;;-0.30;99.90;;;;;;5095393;28;19930;-62
2023/01/21 08:00:37;;;;;;;;;;;-0.40;99.90;;;;;;5097277;28;19908;-62
2023/01/21 08:03:03;;;;;;;;;;;-0.30;99.90;;;;;;5097493;28;19912;-62
2023/01/21 08:05:28;;;;;;;;;;;-0.30;99.90;;;;;;5097203;28;20320;-62
2023/01/21 08:07:55;;;;;;;;;;;-0.30;99.90;;;;;;5097415;28;19915;-62
2023/01/21 08:10:21;;;;;;;;;;;-0.30;99.90;;;;;;5097395;28;19931;-62
2023/01/21 08:12:46;;;;;;;;;;;-0.30;99.90;;;;;;5097061;28;19908;-62
2023/01/21 08:15:12;;;;;;;;;;;-0.20;99.90;;;;;;5096742;28;19963;-62
2023/01/21 08:17:38;;;;;;;;;;;-0.30;99.90;;;;;;5097246;28;19915;-61
2023/01/21 08:20:04;;;;;;;;;;;-0.30;99.90;;;;;;5097157;28;20283;-61
2023/01/21 08:22:29;;;;;;;;;;;-0.20;99.90;;;;;;5097136;28;19931;-63
2023/01/21 08:24:55;;;;;;;;;;;-0.20;99.90;;;;;;5096819;28;19908;-61
2023/01/21 08:27:20;;;;;;;;;;;-0.20;99.90;;;;;;5096792;28;19912;-62
2023/01/21 08:29:47;;;;;;;;;;;-0.20;99.90;;;;;;5096708;28;20016;-61
2023/01/21 08:32:13;;;;;;;;;;;-0.10;99.90;;;;;;5096949;28;19908;-61
2023/01/21 08:34:38;;;;;;;;;;;-0.10;99.90;;;;;;5096690;28;19915;-62
2023/01/21 08:37:03;;;;;;;;;;;-0.10;99.90;;;;;;5096426;28;20312;-61
2023/01/21 08:39:29;;;;;;;;;;;0.00;99.90;;;;;;5096826;28;19908;-61
2023/01/21 08:41:54;;;;;;;;;;;0.00;99.90;;;;;;5096765;28;19908;-61
2023/01/21 08:44:20;;;;;;;;;;;0.00;99.90;;;;;;5096689;28;19915;-61
2023/01/21 08:46:45;;;;;;;;;;;0.00;99.90;;;;;;5096633;28;19908;-62
2023/01/21 08:49:11;;;;;;;;;;;0.10;99.90;;;;;;5096656;28;19908;-61
2023/01/21 08:51:36;;;;;;;;;;;0.10;99.90;;;;;;5096323;28;19915;-61
2023/01/21 08:54:03;;;;;;;;;;;0.10;99.90;;;;;;5096327;28;20421;-62
2023/01/21 08:56:31;;;;;;;;;;;0.10;99.90;;;;;;5096456;28;19913;-61
2023/01/21 08:58:56;;;;;;;;;;;0.20;99.90;;;;;;5096314;28;19908;-62
2023/01/21 09:01:23;;;;;;;;;;;0.20;99.90;;;;;;5096422;28;20011;-62
2023/01/21 09:03:52;;;;;;;;;;;0.20;99.90;;;;;;5096407;28;19958;-62
2023/01/21 09:06:17;;;;;;;;;;;0.20;99.90;;;;;;5096081;28;19908;-61
2023/01/21 09:08:43;;;;;;;;;;;0.20;99.90;;;;;;5095639;28;19912;-61
2023/01/21 09:11:08;;;;;;;;;;;0.20;99.90;;;;;;5096247;28;19914;-62
2023/01/21 09:13:36;;;;;;;;;;;0.20;99.90;;;;;;5078090;28;19908;-62
2023/01/21 09:16:02;;;;;;;;;;;0.20;99.90;;;;;;5095536;28;19920;-62
2023/01/21 09:18:27;;;;;;;;;;;0.20;99.90;;;;;;5095710;28;20481;-61
2023/01/21 09:20:53;;;;;;;;;;;0.20;99.90;;;;;;5095999;28;19912;-61
2023/01/21 09:23:26;;;;;;;;;;;0.20;99.90;;;;;;5095684;28;20433;-61
2023/01/21 09:25:54;;;;;;;;;;;0.20;99.90;;;;;;5095901;28;19908;-61
2023/01/21 09:28:20;;;;;;;;;;;0.20;99.90;;;;;;5095875;28;19908;-62
2023/01/21 09:30:46;;;;;;;;;;;0.30;99.90;;;;;;5095592;28;19908;-61
2023/01/21 09:33:13;;;;;;;;;;;0.30;99.90;;;;;;5095810;28;19957;-61
2023/01/21 09:35:38;;;;;;;;;;;0.30;99.90;;;;;;5095689;28;20280;-61
2023/01/21 09:38:04;;;;;;;;;;;0.40;99.90;;;;;;5095328;28;20033;-61
2023/01/21 09:40:29;;;;;;;;;;;0.40;99.90;;;;;;5095618;28;19994;-62
2023/01/21 09:42:55;;;;;;;;;;;0.50;99.90;;;;;;5095320;28;19915;-62
2023/01/21 09:45:20;;;;;;;;;;;0.60;99.90;;;;;;5095298;28;19969;-62
2023/01/21 09:47:47;;;;;;;;;;;0.60;99.90;;;;;;5095511;28;20247;-62
2023/01/21 09:50:16;;;;;;;;;;;0.70;99.90;;;;;;5095474;28;19912;-62
2023/01/21 09:52:43;;;;;;;;;;;0.80;99.90;;;;;;5095363;28;19915;-62
2023/01/21 09:55:17;;;;;;;;;;;0.80;99.90;;;;;;5095192;28;19908;-62
2023/01/21 09:58:02;;;;;;;;;;;0.80;99.90;;;;;;5095316;28;19915;-62
2023/01/21 10:00:48;;;;;;;;;;;0.80;99.90;;;;;;5094858;28;19995;-62
2023/01/21 10:03:24;;;;;;;;;;;0.80;99.90;;;;;;5094735;28;19977;-62
2023/01/21 10:06:11;;;;;;;;;;;0.80;99.90;;;;;;5094888;28;20357;-62
2023/01/21 10:08:56;;;;;;;;;;;0.80;99.90;;;;;;5094746;28;19948;-62
2023/01/21 10:11:35;;;;;;;;;;;0.80;99.90;;;;;;5094555;28;19915;-62
2023/01/21 10:14:18;;;;;;;;;;;0.80;99.90;;;;;;5094995;28;20269;-62
2023/01/21 10:19:32;;;;;;;;;;;0.80;99.90;;;;;;5071103;28;20401;-64
2023/01/21 10:22:00;;;;;;;;;;;0.90;99.90;;;;;;5071236;28;20109;-64
2023/01/21 10:24:29;;;;;;;;;;;0.90;99.90;;;;;;5071111;28;20375;-61
2023/01/21 10:26:55;;;;;;;;;;;0.80;99.90;;;;;;5071142;28;20394;-61
2023/01/21 10:29:22;;;;;;;;;;;0.90;99.90;;;;;;5069572;28;20328;-61
2023/01/21 10:32:06;;;;;;;;;;;0.90;99.90;;;;;;5071000;28;19913;-61
2023/01/21 10:34:32;;;;;;;;;;;1.10;99.90;;;;;;5070714;28;19908;-61
2023/01/21 10:37:16;;;;;;;;;;;1.10;99.90;;;;;;5070840;28;20000;-62
2023/01/21 10:39:47;;;;;;;;;;;1.00;99.90;;;;;;5070599;28;19908;-61
2023/01/21 10:42:33;;;;;;;;;;;1.00;99.90;;;;;;5070551;28;19915;-61
2023/01/21 10:45:18;;;;;;;;;;;0.90;99.90;;;;;;5070444;28;20012;-61
2023/01/21 10:48:03;;;;;;;;;;;1.00;99.90;;;;;;5070483;28;19908;-61
2023/01/21 10:50:39;;;;;;;;;;;1.00;99.90;;;;;;5070657;28;20428;-62
2023/01/21 10:53:24;;;;;;;;;;;1.10;99.90;;;;;;5070337;28;19917;-61
2023/01/21 10:55:57;;;;;;;;;;;1.10;99.90;;;;;;5070337;28;19915;-62
2023/01/21 10:58:26;;;;;;;;;;;1.10;99.90;;;;;;5070399;28;20362;-62
2023/01/21 11:00:53;;;;;;;;;;;1.10;99.90;;;;;;5070181;28;20354;-61
2023/01/21 11:03:22;;;;;;;;;;;1.20;99.90;;;;;;5070075;28;19913;-61
2023/01/21 11:05:48;;;;;;;;;;;1.20;99.90;;;;;;5070098;28;20003;-61
2023/01/21 11:08:17;;;;;;;;;;;1.20;99.90;;;;;;5070357;28;20002;-64
2023/01/21 11:10:43;;;;;;;;;;;1.20;99.90;;;;;;5070271;28;20370;-62
2023/01/21 11:13:11;;;;;;;;;;;1.30;99.90;;;;;;5069947;28;19908;-62
2023/01/21 11:15:39;;;;;;;;;;;1.30;99.90;;;;;;5070122;28;19909;-62
2023/01/21 11:18:23;;;;;;;;;;;1.20;99.90;;;;;;5078742;28;19934;-62
2023/01/21 11:20:48;;;;;;;;;;;1.20;99.90;;;;;;5090002;28;19919;-62
2023/01/21 11:23:30;;;;;;;;;;;1.30;99.90;;;;;;5090047;28;19995;-62
2023/01/21 11:26:00;;;;;;;;;;;1.30;99.90;;;;;;5089880;28;20385;-62
2023/01/21 11:28:28;;;;;;;;;;;1.30;99.90;;;;;;5090097;28;19915;-62
2023/01/21 11:31:12;;;;;;;;;;;1.30;99.90;;;;;;5075930;28;19919;-62
2023/01/21 11:33:39;;;;;;;;;;;1.30;99.90;;;;;;5076491;28;19912;-62
2023/01/21 11:36:09;;;;;;;;;;;1.20;99.90;;;;;;5076141;28;20003;-63
2023/01/21 11:38:34;;;;;;;;;;;1.20;99.90;;;;;;5076329;28;20007;-62
2023/01/21 11:41:01;;;;;;;;;;;1.20;99.90;;;;;;5076314;28;19952;-62
2023/01/21 11:43:38;;;;;;;;;;;1.20;99.90;;;;;;5076008;28;19957;-62
2023/01/21 11:46:24;;;;;;;;;;;1.30;99.90;;;;;;5075933;28;19916;-62
2023/01/21 11:48:52;;;;;;;;;;;1.20;99.90;;;;;;5075744;28;19909;-62
2023/01/21 11:51:18;;;;;;;;;;;1.30;99.90;;;;;;5075850;28;20397;-62
2023/01/21 11:53:45;;;;;;;;;;;1.30;99.90;;;;;;5076071;28;19912;-62
2023/01/21 11:56:11;;;;;;;;;;;1.30;99.90;;;;;;5075794;28;19909;-62
2023/01/21 11:58:39;;;;;;;;;;;1.30;99.90;;;;;;5075999;28;19958;-62
2023/01/21 12:01:06;;;;;;;;;;;1.30;99.90;;;;;;5076026;28;20350;-62
2023/01/21 12:03:35;;;;;;;;;;;1.40;99.90;;;;;;5076003;28;19909;-62
2023/01/21 12:06:00;;;;;;;;;;;1.40;99.90;;;;;;5075713;28;20011;-62
2023/01/21 12:08:28;;;;;;;;;;;1.40;99.90;;;;;;5075642;28;19959;-62
2023/01/21 12:10:55;;;;;;;;;;;1.50;99.90;;;;;;5075838;28;19945;-62
2023/01/21 12:13:25;;;;;;;;;;;1.50;99.90;;;;;;5075801;28;20281;-62
2023/01/21 12:16:02;;;;;;;;;;;1.50;99.90;;;;;;5075774;28;19908;-62
2023/01/21 12:18:37;;;;;;;;;;;1.60;99.90;;;;;;5075195;28;20367;-62
2023/01/21 12:21:04;;;;;;;;;;;1.60;99.90;;;;;;5075725;28;19909;-62
2023/01/21 12:23:49;;;;;;;;;;;1.60;99.90;;;;;;5075515;28;19908;-62
2023/01/21 12:26:23;;;;;;;;;;;1.60;99.90;;;;;;5075166;28;20374;-62
2023/01/21 12:29:08;;;;;;;;;;;1.50;99.90;;;;;;5075244;28;20054;-62
2023/01/21 12:31:41;;;;;;;;;;;1.60;99.90;;;;;;5074729;28;19915;-64
2023/01/21 12:34:11;;;;;;;;;;;1.60;99.90;;;;;;5075257;28;19916;-62
2023/01/21 12:36:43;;;;;;;;;;;1.60;99.90;;;;;;5075133;28;20358;-62
2023/01/21 12:39:15;;;;;;;;;;;1.60;99.90;;;;;;5074899;28;19913;-62
2023/01/21 12:41:43;;;;;;;;;;;1.50;99.90;;;;;;5073986;28;20366;-62
2023/01/21 12:44:16;;;;;;;;;;;1.50;99.90;;;;;;5075146;28;19955;-62
2023/01/21 12:46:45;;;;;;;;;;;1.50;99.90;;;;;;5075178;28;19908;-62
2023/01/21 12:49:15;;;;;;;;;;;1.50;99.90;;;;;;5074830;28;19908;-62
2023/01/21 12:51:43;;;;;;;;;;;1.50;99.90;;;;;;5074815;28;19958;-62
2023/01/21 12:54:13;;;;;;;;;;;1.50;99.90;;;;;;5074959;28;20294;-62
2023/01/21 12:56:42;;;;;;;;;;;1.40;99.90;;;;;;5074547;28;19948;-62
2023/01/21 12:59:13;;;;;;;;;;;1.40;99.90;;;;;;5074552;28;19973;-62
2023/01/21 13:01:59;;;;;;;;;;;1.40;99.90;;;;;;5074883;28;19908;-62
2023/01/21 13:04:31;;;;;;;;;;;1.40;99.90;;;;;;5074317;28;19915;-62
2023/01/21 13:07:00;;;;;;;;;;;1.40;99.90;;;;;;5074732;28;19909;-62
2023/01/21 13:09:46;;;;;;;;;;;1.40;99.90;;;;;;5074701;28;20334;-62
2023/01/21 13:12:18;;;;;;;;;;;1.50;99.90;;;;;;5074072;28;19909;-62
2023/01/21 13:14:46;;;;;;;;;;;1.50;99.90;;;;;;5074302;28;20313;-62
2023/01/21 13:17:15;;;;;;;;;;;1.50;99.90;;;;;;5073996;28;20378;-62
2023/01/21 13:19:41;;;;;;;;;;;1.50;99.90;;;;;;5074449;28;19931;-62
2023/01/21 13:22:26;;;;;;;;;;;1.50;99.90;;;;;;5074328;28;19909;-62
2023/01/21 13:25:13;;;;;;;;;;;1.50;99.90;;;;;;5074024;28;19909;-62
2023/01/21 13:27:43;;;;;;;;;;;1.50;99.90;;;;;;5074081;28;19919;-62
2023/01/21 13:30:16;;;;;;;;;;;1.60;99.90;;;;;;5074243;28;19913;-62
2023/01/21 13:35:42;;;;;;;;;;;1.60;99.90;;;;;;5071071;28;19919;-62
2023/01/21 13:38:26;;;;;;;;;;;1.70;99.90;;;;;;5070788;28;20378;-62
2023/01/21 13:40:55;;;;;;;;;;;1.70;99.90;;;;;;5071083;28;19909;-62
2023/01/21 13:43:28;;;;;;;;;;;1.70;99.90;;;;;;5070736;28;20424;-62
2023/01/21 13:48:54;;;;;;;;;;;1.70;99.90;;;;;;5071008;28;19913;-62
2023/01/21 13:51:25;;;;;;;;;;;1.70;99.90;;;;;;5083959;28;19917;-62
2023/01/21 13:54:03;;;;;;;;;;;1.70;99.90;;;;;;5070851;28;19913;-62
2023/01/21 13:56:48;;;;;;;;;;;1.70;99.90;;;;;;5071016;28;20278;-62
2023/01/21 13:59:17;;;;;;;;;;;1.70;99.90;;;;;;5070692;28;19909;-62
2023/01/21 14:02:02;;;;;;;;;;;1.80;99.90;;;;;;5070599;28;19913;-62
2023/01/21 14:04:48;;;;;;;;;;;1.70;99.90;;;;;;5070455;28;19908;-62
2023/01/21 14:07:21;;;;;;;;;;;1.70;99.90;;;;;;5070477;28;19920;-62
2023/01/21 14:09:53;;;;;;;;;;;1.70;99.90;;;;;;5070461;28;19958;-62
2023/01/21 14:12:24;;;;;;;;;;;1.80;99.90;;;;;;5070632;28;19908;-62
2023/01/21 14:15:08;;;;;;;;;;;1.80;99.90;;;;;;5085992;28;20011;-62
2023/01/21 14:17:53;;;;;;;;;;;1.80;99.90;;;;;;5070490;28;19915;-62
2023/01/21 14:20:39;;;;;;;;;;;1.80;99.90;;;;;;5070263;28;20007;-62
2023/01/21 14:23:12;;;;;;;;;;;1.80;99.90;;;;;;5070121;28;20007;-62
2023/01/21 14:25:58;;;;;;;;;;;1.80;99.90;;;;;;5068818;28;19909;-62
2023/01/21 14:28:29;;;;;;;;;;;1.80;99.90;;;;;;5070067;28;19912;-62
2023/01/21 14:31:15;;;;;;;;;;;1.80;99.90;;;;;;5070347;28;20282;-62
2023/01/21 14:33:44;;;;;;;;;;;1.80;99.90;;;;;;5069973;28;20374;-62
2023/01/21 14:36:19;;;;;;;;;;;1.80;99.90;;;;;;5070178;28;19916;-62
2023/01/21 14:39:04;;;;;;;;;;;1.80;99.90;;;;;;5070174;28;20279;-62
2023/01/21 14:41:50;;;;;;;;;;;1.80;99.90;;;;;;5069801;28;20374;-62
2023/01/21 14:44:35;;;;;;;;;;;1.80;99.90;;;;;;5069840;28;19995;-62